sensor_id;sensor_type;location;lat;lon;timestamp;temperature;humidity
3190;DHT22;1606;51.946;10.558;2022-09-30T00:01:31;11.00;99.90
3190;DHT22;1606;51.946;10.558;2022-09-30T00:04:00;10.90;99.90
3190;DHT22;1606;51.946;10.558;2022-09-30T00:06:29;10.70;99.90
3190;DHT22;1606;51.946;10.558;2022-09-30T00:08:58;10.40;99.90
3190;DHT22;1606;51.946;10.558;2022-09-30T00:11:27;10.30;99.90
3190;DHT22;1606;51.946;10.558;2022-09-30T00:13:57;10.20;99.90
3190;DHT22;1606;51.946;10.558;2022-09-30T00:16:28;10.40;99.90
3190;DHT22;1606;51.946;10.558;2022-09-30T00:18:57;10.40;99.90
3190;DHT22;1606;51.946;10.558;2022-09-30T00:21:26;10.60;99.90
3190;DHT22;1606;51.946;10.558;2022-09-30T00:23:55;10.60;99.90
3190;DHT22;1606;51.946;10.558;2022-09-30T00:26:24;10.50;99.90
3190;DHT22;1606;51.946;10.558;2022-09-30T00:28:54;10.30;99.90
3190;DHT22;1606;51.946;10.558;2022-09-30T00:31:25;10.20;99.90
3190;DHT22;1606;51.946;10.558;2022-09-30T00:33:54;10.20;99.90
3190;DHT22;1606;51.946;10.558;2022-09-30T00:36:35;10.20;99.90
3190;DHT22;1606;51.946;10.558;2022-09-30T00:39:05;10.10;99.90
3190;DHT22;1606;51.946;10.558;2022-09-30T00:41:33;10.00;99.90
3190;DHT22;1606;51.946;10.558;2022-09-30T00:44:01;9.90;99.90
3190;DHT22;1606;51.946;10.558;2022-09-30T00:46:51;10.00;99.90
3190;DHT22;1606;51.946;10.558;2022-09-30T00:49:21;10.10;99.90
3190;DHT22;1606;51.946;10.558;2022-09-30T00:51:54;10.00;99.90
3190;DHT22;1606;51.946;10.558;2022-09-30T00:54:25;9.90;99.90
3190;DHT22;1606;51.946;10.558;2022-09-30T00:56:57;9.90;99.90
3190;DHT22;1606;51.946;10.558;2022-09-30T00:59:29;9.80;99.90
3190;DHT22;1606;51.946;10.558;2022-09-30T01:02:00;9.90;99.90
3190;DHT22;1606;51.946;10.558;2022-09-30T01:04:30;10.00;99.90
3190;DHT22;1606;51.946;10.558;2022-09-30T01:07:01;9.80;99.90
3190;DHT22;1606;51.946;10.558;2022-09-30T01:09:30;9.80;99.90
3190;DHT22;1606;51.946;10.558;2022-09-30T01:12:02;10.10;99.90
3190;DHT22;1606;51.946;10.558;2022-09-30T01:14:31;10.20;99.90
3190;DHT22;1606;51.946;10.558;2022-09-30T01:17:04;10.00;99.90
3190;DHT22;1606;51.946;10.558;2022-09-30T01:20:01;9.70;99.90
3190;DHT22;1606;51.946;10.558;2022-09-30T01:22:39;9.70;99.90
3190;DHT22;1606;51.946;10.558;2022-09-30T01:25:43;9.70;99.90
3190;DHT22;1606;51.946;10.558;2022-09-30T01:28:44;9.60;99.90
3190;DHT22;1606;51.946;10.558;2022-09-30T01:31:27;9.30;99.90
3190;DHT22;1606;51.946;10.558;2022-09-30T01:34:05;9.20;99.90
3190;DHT22;1606;51.946;10.558;2022-09-30T01:36:44;9.30;99.90
3190;DHT22;1606;51.946;10.558;2022-09-30T01:39:24;9.50;99.90
3190;DHT22;1606;51.946;10.558;2022-09-30T01:41:58;9.50;99.90
3190;DHT22;1606;51.946;10.558;2022-09-30T01:44:36;9.40;99.90
3190;DHT22;1606;51.946;10.558;2022-09-30T01:47:11;9.50;99.90
3190;DHT22;1606;51.946;10.558;2022-09-30T01:49:45;9.50;99.90
3190;DHT22;1606;51.946;10.558;2022-09-30T01:52:15;9.30;99.90
3190;DHT22;1606;51.946;10.558;2022-09-30T01:54:52;9.40;99.90
3190;DHT22;1606;51.946;10.558;2022-09-30T01:57:25;9.70;99.90
3190;DHT22;1606;51.946;10.558;2022-09-30T01:59:58;9.70;99.90
3190;DHT22;1606;51.946;10.558;2022-09-30T02:02:31;9.60;99.90
3190;DHT22;1606;51.946;10.558;2022-09-30T02:05:02;9.70;99.90
3190;DHT22;1606;51.946;10.558;2022-09-30T02:07:35;9.60;99.90
3190;DHT22;1606;51.946;10.558;2022-09-30T02:10:08;9.40;99.90
3190;DHT22;1606;51.946;10.558;2022-09-30T02:12:40;9.40;99.90
3190;DHT22;1606;51.946;10.558;2022-09-30T02:15:15;9.50;99.90
3190;DHT22;1606;51.946;10.558;2022-09-30T02:17:48;9.60;99.90
3190;DHT22;1606;51.946;10.558;2022-09-30T02:20:20;9.70;99.90
3190;DHT22;1606;51.946;10.558;2022-09-30T02:22:52;9.80;99.90
3190;DHT22;1606;51.946;10.558;2022-09-30T02:25:27;9.70;99.90
3190;DHT22;1606;51.946;10.558;2022-09-30T02:27:58;9.50;99.90
3190;DHT22;1606;51.946;10.558;2022-09-30T02:30:29;9.50;99.90
3190;DHT22;1606;51.946;10.558;2022-09-30T02:33:01;9.60;99.90
3190;DHT22;1606;51.946;10.558;2022-09-30T02:35:34;9.80;99.90
3190;DHT22;1606;51.946;10.558;2022-09-30T02:38:06;9.60;99.90
3190;DHT22;1606;51.946;10.558;2022-09-30T02:40:40;9.40;99.90
3190;DHT22;1606;51.946;10.558;2022-09-30T02:43:09;9.30;99.90
3190;DHT22;1606;51.946;10.558;2022-09-30T02:45:42;9.20;99.90
3190;DHT22;1606;51.946;10.558;2022-09-30T02:48:23;9.20;99.90
3190;DHT22;1606;51.946;10.558;2022-09-30T02:50:56;9.30;99.90
3190;DHT22;1606;51.946;10.558;2022-09-30T02:53:28;9.20;99.90
3190;DHT22;1606;51.946;10.558;2022-09-30T02:56:12;9.10;99.90
3190;DHT22;1606;51.946;10.558;2022-09-30T02:58:42;9.20;99.90
3190;DHT22;1606;51.946;10.558;2022-09-30T03:01:13;9.20;99.90
3190;DHT22;1606;51.946;10.558;2022-09-30T03:03:45;9.20;99.90
3190;DHT22;1606;51.946;10.558;2022-09-30T03:06:14;9.20;99.90
3190;DHT22;1606;51.946;10.558;2022-09-30T03:08:42;9.30;99.90
3190;DHT22;1606;51.946;10.558;2022-09-30T03:11:14;9.30;99.90
3190;DHT22;1606;51.946;10.558;2022-09-30T03:14:06;9.30;99.90
3190;DHT22;1606;51.946;10.558;2022-09-30T03:16:48;9.20;99.90
3190;DHT22;1606;51.946;10.558;2022-09-30T03:19:39;9.20;99.90
3190;DHT22;1606;51.946;10.558;2022-09-30T03:22:25;9.30;99.90
3190;DHT22;1606;51.946;10.558;2022-09-30T03:25:12;9.40;99.90
3190;DHT22;1606;51.946;10.558;2022-09-30T03:27:53;9.30;99.90
3190;DHT22;1606;51.946;10.558;2022-09-30T03:30:26;9.30;99.90
3190;DHT22;1606;51.946;10.558;2022-09-30T03:33:05;9.50;99.90
3190;DHT22;1606;51.946;10.558;2022-09-30T03:35:42;9.60;99.90
3190;DHT22;1606;51.946;10.558;2022-09-30T03:38:21;9.50;99.90
3190;DHT22;1606;51.946;10.558;2022-09-30T03:40:58;9.20;99.90
3190;DHT22;1606;51.946;10.558;2022-09-30T03:43:31;9.10;99.90
3190;DHT22;1606;51.946;10.558;2022-09-30T03:46:05;9.10;99.90
3190;DHT22;1606;51.946;10.558;2022-09-30T03:48:37;9.10;99.90
3190;DHT22;1606;51.946;10.558;2022-09-30T03:51:08;9.00;99.90
3190;DHT22;1606;51.946;10.558;2022-09-30T03:53:40;8.90;99.90
3190;DHT22;1606;51.946;10.558;2022-09-30T03:56:08;8.90;99.90
3190;DHT22;1606;51.946;10.558;2022-09-30T03:58:39;8.90;99.90
3190;DHT22;1606;51.946;10.558;2022-09-30T04:01:07;8.90;99.90
3190;DHT22;1606;51.946;10.558;2022-09-30T04:03:37;9.10;99.90
3190;DHT22;1606;51.946;10.558;2022-09-30T04:06:09;9.00;99.90
3190;DHT22;1606;51.946;10.558;2022-09-30T04:08:38;9.00;99.90
3190;DHT22;1606;51.946;10.558;2022-09-30T04:11:06;8.90;99.90
3190;DHT22;1606;51.946;10.558;2022-09-30T04:13:33;8.80;99.90
3190;DHT22;1606;51.946;10.558;2022-09-30T04:16:01;8.80;99.90
3190;DHT22;1606;51.946;10.558;2022-09-30T04:18:29;9.10;99.90
3190;DHT22;1606;51.946;10.558;2022-09-30T04:20:57;8.90;99.90
3190;DHT22;1606;51.946;10.558;2022-09-30T04:23:27;9.00;99.90
3190;DHT22;1606;51.946;10.558;2022-09-30T04:25:55;8.90;99.90
3190;DHT22;1606;51.946;10.558;2022-09-30T04:28:23;8.90;99.90
3190;DHT22;1606;51.946;10.558;2022-09-30T04:30:50;8.80;99.90
3190;DHT22;1606;51.946;10.558;2022-09-30T04:33:18;8.90;99.90
3190;DHT22;1606;51.946;10.558;2022-09-30T04:35:46;8.90;99.90
3190;DHT22;1606;51.946;10.558;2022-09-30T04:38:14;8.80;99.90
3190;DHT22;1606;51.946;10.558;2022-09-30T04:40:43;8.90;99.90
3190;DHT22;1606;51.946;10.558;2022-09-30T04:43:11;8.70;99.90
3190;DHT22;1606;51.946;10.558;2022-09-30T04:45:41;8.60;99.90
3190;DHT22;1606;51.946;10.558;2022-09-30T04:48:09;8.60;99.90
3190;DHT22;1606;51.946;10.558;2022-09-30T04:50:38;8.60;99.90
3190;DHT22;1606;51.946;10.558;2022-09-30T04:53:06;8.90;99.90
3190;DHT22;1606;51.946;10.558;2022-09-30T04:55:33;8.90;99.90
3190;DHT22;1606;51.946;10.558;2022-09-30T04:58:03;8.90;99.90
3190;DHT22;1606;51.946;10.558;2022-09-30T05:00:30;8.90;99.90
3190;DHT22;1606;51.946;10.558;2022-09-30T05:02:58;8.90;99.90
3190;DHT22;1606;51.946;10.558;2022-09-30T05:05:26;8.80;99.90
3190;DHT22;1606;51.946;10.558;2022-09-30T05:07:59;8.80;99.90
3190;DHT22;1606;51.946;10.558;2022-09-30T05:10:27;8.80;99.90
3190;DHT22;1606;51.946;10.558;2022-09-30T05:12:55;8.80;99.90
3190;DHT22;1606;51.946;10.558;2022-09-30T05:15:25;8.70;99.90
3190;DHT22;1606;51.946;10.558;2022-09-30T05:17:53;8.60;99.90
3190;DHT22;1606;51.946;10.558;2022-09-30T05:20:21;8.70;99.90
3190;DHT22;1606;51.946;10.558;2022-09-30T05:22:53;8.90;99.90
3190;DHT22;1606;51.946;10.558;2022-09-30T05:25:21;9.20;99.90
3190;DHT22;1606;51.946;10.558;2022-09-30T05:27:50;9.10;99.90
3190;DHT22;1606;51.946;10.558;2022-09-30T05:30:18;8.80;99.90
3190;DHT22;1606;51.946;10.558;2022-09-30T05:32:47;8.60;99.90
3190;DHT22;1606;51.946;10.558;2022-09-30T05:35:15;8.70;99.90
3190;DHT22;1606;51.946;10.558;2022-09-30T05:37:42;8.80;99.90
3190;DHT22;1606;51.946;10.558;2022-09-30T05:40:10;8.80;99.90
3190;DHT22;1606;51.946;10.558;2022-09-30T05:42:38;9.10;99.90
3190;DHT22;1606;51.946;10.558;2022-09-30T05:45:07;8.90;99.90
3190;DHT22;1606;51.946;10.558;2022-09-30T05:47:34;9.10;99.90
3190;DHT22;1606;51.946;10.558;2022-09-30T05:50:04;8.90;99.90
3190;DHT22;1606;51.946;10.558;2022-09-30T05:52:32;9.10;99.90
3190;DHT22;1606;51.946;10.558;2022-09-30T05:55:00;8.90;99.90
3190;DHT22;1606;51.946;10.558;2022-09-30T05:57:29;8.80;99.90
3190;DHT22;1606;51.946;10.558;2022-09-30T05:59:57;8.70;99.90
3190;DHT22;1606;51.946;10.558;2022-09-30T06:02:25;8.60;99.90
3190;DHT22;1606;51.946;10.558;2022-09-30T06:04:52;8.60;99.90
3190;DHT22;1606;51.946;10.558;2022-09-30T06:07:22;8.70;99.90
3190;DHT22;1606;51.946;10.558;2022-09-30T06:09:49;8.70;99.90
3190;DHT22;1606;51.946;10.558;2022-09-30T06:12:17;8.60;99.90
3190;DHT22;1606;51.946;10.558;2022-09-30T06:14:45;8.70;99.90
3190;DHT22;1606;51.946;10.558;2022-09-30T06:17:13;8.70;99.90
3190;DHT22;1606;51.946;10.558;2022-09-30T06:19:44;8.60;99.90
3190;DHT22;1606;51.946;10.558;2022-09-30T06:22:11;8.50;99.90
3190;DHT22;1606;51.946;10.558;2022-09-30T06:24:41;8.60;99.90
3190;DHT22;1606;51.946;10.558;2022-09-30T06:27:09;8.60;99.90
3190;DHT22;1606;51.946;10.558;2022-09-30T06:29:36;8.70;99.90
3190;DHT22;1606;51.946;10.558;2022-09-30T06:32:05;8.70;99.90
3190;DHT22;1606;51.946;10.558;2022-09-30T06:34:33;8.60;99.90
3190;DHT22;1606;51.946;10.558;2022-09-30T06:37:01;8.60;99.90
3190;DHT22;1606;51.946;10.558;2022-09-30T06:39:29;8.70;99.90
3190;DHT22;1606;51.946;10.558;2022-09-30T06:41:58;9.00;99.90
3190;DHT22;1606;51.946;10.558;2022-09-30T06:44:25;8.90;99.90
3190;DHT22;1606;51.946;10.558;2022-09-30T06:46:53;9.00;99.90
3190;DHT22;1606;51.946;10.558;2022-09-30T06:49:21;9.10;99.90
3190;DHT22;1606;51.946;10.558;2022-09-30T06:51:49;9.20;99.90
3190;DHT22;1606;51.946;10.558;2022-09-30T06:54:17;9.20;99.90
3190;DHT22;1606;51.946;10.558;2022-09-30T06:56:46;9.20;99.90
3190;DHT22;1606;51.946;10.558;2022-09-30T06:59:15;9.30;99.90
3190;DHT22;1606;51.946;10.558;2022-09-30T07:01:43;9.40;99.90
3190;DHT22;1606;51.946;10.558;2022-09-30T07:04:12;9.40;99.90
3190;DHT22;1606;51.946;10.558;2022-09-30T07:06:40;9.40;99.90
3190;DHT22;1606;51.946;10.558;2022-09-30T07:09:09;9.40;99.90
3190;DHT22;1606;51.946;10.558;2022-09-30T07:11:38;9.50;99.90
3190;DHT22;1606;51.946;10.558;2022-09-30T07:14:06;9.50;99.90
3190;DHT22;1606;51.946;10.558;2022-09-30T07:16:36;9.60;99.90
3190;DHT22;1606;51.946;10.558;2022-09-30T07:19:05;9.70;99.90
3190;DHT22;1606;51.946;10.558;2022-09-30T07:21:35;9.90;99.90
3190;DHT22;1606;51.946;10.558;2022-09-30T07:24:03;10.00;99.90
3190;DHT22;1606;51.946;10.558;2022-09-30T07:26:31;10.10;99.90
3190;DHT22;1606;51.946;10.558;2022-09-30T07:28:59;10.10;99.90
3190;DHT22;1606;51.946;10.558;2022-09-30T07:31:28;10.10;99.90
3190;DHT22;1606;51.946;10.558;2022-09-30T07:34:02;10.20;99.90
3190;DHT22;1606;51.946;10.558;2022-09-30T07:36:32;10.20;99.90
3190;DHT22;1606;51.946;10.558;2022-09-30T07:39:02;10.30;99.90
3190;DHT22;1606;51.946;10.558;2022-09-30T07:41:34;10.60;99.90
3190;DHT22;1606;51.946;10.558;2022-09-30T07:44:06;10.80;99.90
3190;DHT22;1606;51.946;10.558;2022-09-30T07:46:35;10.90;99.90
3190;DHT22;1606;51.946;10.558;2022-09-30T07:49:07;11.10;99.90
3190;DHT22;1606;51.946;10.558;2022-09-30T07:51:39;11.40;99.90
3190;DHT22;1606;51.946;10.558;2022-09-30T07:54:12;11.70;99.90
3190;DHT22;1606;51.946;10.558;2022-09-30T07:56:41;11.90;99.90
3190;DHT22;1606;51.946;10.558;2022-09-30T07:59:31;12.00;99.90
3190;DHT22;1606;51.946;10.558;2022-09-30T08:01:59;12.10;99.90
3190;DHT22;1606;51.946;10.558;2022-09-30T08:04:31;12.30;99.90
3190;DHT22;1606;51.946;10.558;2022-09-30T08:07:01;12.40;99.90
3190;DHT22;1606;51.946;10.558;2022-09-30T08:09:29;12.60;99.90
3190;DHT22;1606;51.946;10.558;2022-09-30T08:11:57;12.80;99.90
3190;DHT22;1606;51.946;10.558;2022-09-30T08:14:26;12.90;99.90
3190;DHT22;1606;51.946;10.558;2022-09-30T08:16:54;13.10;99.90
3190;DHT22;1606;51.946;10.558;2022-09-30T08:19:24;13.30;99.90
3190;DHT22;1606;51.946;10.558;2022-09-30T08:21:53;13.40;99.90
3190;DHT22;1606;51.946;10.558;2022-09-30T08:24:24;13.70;99.90
3190;DHT22;1606;51.946;10.558;2022-09-30T08:26:53;13.80;99.90
3190;DHT22;1606;51.946;10.558;2022-09-30T08:29:21;13.80;99.90
3190;DHT22;1606;51.946;10.558;2022-09-30T08:32:09;14.00;99.90
3190;DHT22;1606;51.946;10.558;2022-09-30T08:34:37;14.00;99.90
3190;DHT22;1606;51.946;10.558;2022-09-30T08:37:06;14.20;99.90
3190;DHT22;1606;51.946;10.558;2022-09-30T08:39:35;14.20;99.90
3190;DHT22;1606;51.946;10.558;2022-09-30T08:42:22;14.20;99.90
3190;DHT22;1606;51.946;10.558;2022-09-30T08:45:24;14.30;99.90
3190;DHT22;1606;51.946;10.558;2022-09-30T08:48:02;14.40;99.90
3190;DHT22;1606;51.946;10.558;2022-09-30T08:50:41;14.50;99.90
3190;DHT22;1606;51.946;10.558;2022-09-30T08:53:20;14.80;99.90
3190;DHT22;1606;51.946;10.558;2022-09-30T08:55:50;15.00;99.90
3190;DHT22;1606;51.946;10.558;2022-09-30T08:58:25;15.10;99.90
3190;DHT22;1606;51.946;10.558;2022-09-30T09:00:57;15.00;99.90
3190;DHT22;1606;51.946;10.558;2022-09-30T09:03:28;14.90;99.90
3190;DHT22;1606;51.946;10.558;2022-09-30T09:06:05;15.20;99.90
3190;DHT22;1606;51.946;10.558;2022-09-30T09:08:51;15.40;99.90
3190;DHT22;1606;51.946;10.558;2022-09-30T09:11:33;15.00;99.90
3190;DHT22;1606;51.946;10.558;2022-09-30T09:14:20;15.30;99.90
3190;DHT22;1606;51.946;10.558;2022-09-30T09:17:00;15.60;99.90
3190;DHT22;1606;51.946;10.558;2022-09-30T09:19:36;15.70;99.90
3190;DHT22;1606;51.946;10.558;2022-09-30T09:22:08;15.90;99.90
3190;DHT22;1606;51.946;10.558;2022-09-30T09:24:41;15.90;99.90
3190;DHT22;1606;51.946;10.558;2022-09-30T09:27:19;16.00;99.90
3190;DHT22;1606;51.946;10.558;2022-09-30T09:29:56;16.30;99.90
3190;DHT22;1606;51.946;10.558;2022-09-30T09:32:27;16.40;99.90
3190;DHT22;1606;51.946;10.558;2022-09-30T09:34:58;16.60;99.50
3190;DHT22;1606;51.946;10.558;2022-09-30T09:37:36;16.70;99.70
3190;DHT22;1606;51.946;10.558;2022-09-30T09:40:32;16.70;99.20
3190;DHT22;1606;51.946;10.558;2022-09-30T09:43:09;16.80;97.30
3190;DHT22;1606;51.946;10.558;2022-09-30T09:45:48;17.00;97.60
3190;DHT22;1606;51.946;10.558;2022-09-30T09:48:17;17.40;98.70
3190;DHT22;1606;51.946;10.558;2022-09-30T09:50:50;17.70;97.50
3190;DHT22;1606;51.946;10.558;2022-09-30T09:56:17;18.00;96.50
3190;DHT22;1606;51.946;10.558;2022-09-30T09:59:05;18.00;95.60
3190;DHT22;1606;51.946;10.558;2022-09-30T10:01:35;18.20;96.80
3190;DHT22;1606;51.946;10.558;2022-09-30T10:04:16;18.40;95.30
3190;DHT22;1606;51.946;10.558;2022-09-30T10:06:47;18.60;93.50
3190;DHT22;1606;51.946;10.558;2022-09-30T10:09:28;18.70;93.50
3190;DHT22;1606;51.946;10.558;2022-09-30T10:12:29;18.80;92.40
3190;DHT22;1606;51.946;10.558;2022-09-30T10:15:13;18.80;92.90
3190;DHT22;1606;51.946;10.558;2022-09-30T10:17:42;18.70;93.00
3190;DHT22;1606;51.946;10.558;2022-09-30T10:20:20;18.90;91.90
3190;DHT22;1606;51.946;10.558;2022-09-30T10:22:49;19.10;92.20
3190;DHT22;1606;51.946;10.558;2022-09-30T10:25:21;19.40;91.80
3190;DHT22;1606;51.946;10.558;2022-09-30T10:27:53;19.70;91.20
3190;DHT22;1606;51.946;10.558;2022-09-30T10:30:43;19.70;91.00
3190;DHT22;1606;51.946;10.558;2022-09-30T10:33:19;19.90;90.70
3190;DHT22;1606;51.946;10.558;2022-09-30T10:35:52;20.10;87.20
3190;DHT22;1606;51.946;10.558;2022-09-30T10:38:21;19.80;86.60
3190;DHT22;1606;51.946;10.558;2022-09-30T10:40:50;19.60;89.30
3190;DHT22;1606;51.946;10.558;2022-09-30T10:43:23;19.60;86.30
3190;DHT22;1606;51.946;10.558;2022-09-30T10:45:51;19.00;85.70
3190;DHT22;1606;51.946;10.558;2022-09-30T10:48:40;18.50;89.20
3190;DHT22;1606;51.946;10.558;2022-09-30T10:51:22;18.70;90.10
3190;DHT22;1606;51.946;10.558;2022-09-30T10:53:50;18.30;88.60
3190;DHT22;1606;51.946;10.558;2022-09-30T10:56:33;18.40;90.60
3190;DHT22;1606;51.946;10.558;2022-09-30T10:59:10;18.30;89.40
3190;DHT22;1606;51.946;10.558;2022-09-30T11:01:46;18.50;88.50
3190;DHT22;1606;51.946;10.558;2022-09-30T11:04:25;18.50;90.40
3190;DHT22;1606;51.946;10.558;2022-09-30T11:07:00;18.50;90.60
3190;DHT22;1606;51.946;10.558;2022-09-30T11:09:34;18.50;89.10
3190;DHT22;1606;51.946;10.558;2022-09-30T11:12:10;18.60;88.50
3190;DHT22;1606;51.946;10.558;2022-09-30T11:14:48;18.80;87.80
3190;DHT22;1606;51.946;10.558;2022-09-30T11:17:37;18.90;87.10
3190;DHT22;1606;51.946;10.558;2022-09-30T11:20:17;19.10;87.80
3190;DHT22;1606;51.946;10.558;2022-09-30T11:22:51;19.30;87.70
3190;DHT22;1606;51.946;10.558;2022-09-30T11:25:26;19.60;84.70
3190;DHT22;1606;51.946;10.558;2022-09-30T11:28:16;19.70;82.80
3190;DHT22;1606;51.946;10.558;2022-09-30T11:30:55;19.60;83.00
3190;DHT22;1606;51.946;10.558;2022-09-30T11:33:42;19.40;84.00
3190;DHT22;1606;51.946;10.558;2022-09-30T11:36:21;19.70;85.80
3190;DHT22;1606;51.946;10.558;2022-09-30T11:39:20;19.80;87.20
3190;DHT22;1606;51.946;10.558;2022-09-30T11:41:56;19.50;84.30
3190;DHT22;1606;51.946;10.558;2022-09-30T11:44:30;19.00;83.60
3190;DHT22;1606;51.946;10.558;2022-09-30T11:47:28;19.30;85.40
3190;DHT22;1606;51.946;10.558;2022-09-30T11:50:14;19.30;85.70
3190;DHT22;1606;51.946;10.558;2022-09-30T11:52:54;19.30;84.20
3190;DHT22;1606;51.946;10.558;2022-09-30T11:55:39;19.30;83.70
3190;DHT22;1606;51.946;10.558;2022-09-30T11:58:13;19.40;85.80
3190;DHT22;1606;51.946;10.558;2022-09-30T12:01:12;19.30;84.30
3190;DHT22;1606;51.946;10.558;2022-09-30T12:03:46;19.30;83.60
3190;DHT22;1606;51.946;10.558;2022-09-30T12:06:25;18.80;85.70
3190;DHT22;1606;51.946;10.558;2022-09-30T12:08:57;18.90;85.00
3190;DHT22;1606;51.946;10.558;2022-09-30T12:11:35;19.00;85.70
3190;DHT22;1606;51.946;10.558;2022-09-30T12:14:09;19.10;89.10
3190;DHT22;1606;51.946;10.558;2022-09-30T12:16:39;19.10;84.80
3190;DHT22;1606;51.946;10.558;2022-09-30T12:19:14;19.40;84.90
3190;DHT22;1606;51.946;10.558;2022-09-30T12:21:55;19.20;84.60
3190;DHT22;1606;51.946;10.558;2022-09-30T12:24:30;19.10;84.30
3190;DHT22;1606;51.946;10.558;2022-09-30T12:26:58;19.00;85.50
3190;DHT22;1606;51.946;10.558;2022-09-30T12:29:30;19.00;87.50
3190;DHT22;1606;51.946;10.558;2022-09-30T12:32:38;19.20;88.20
3190;DHT22;1606;51.946;10.558;2022-09-30T12:35:28;19.30;81.80
3190;DHT22;1606;51.946;10.558;2022-09-30T12:38:09;19.60;82.10
3190;DHT22;1606;51.946;10.558;2022-09-30T12:40:45;19.40;81.50
3190;DHT22;1606;51.946;10.558;2022-09-30T12:43:48;19.50;84.60
3190;DHT22;1606;51.946;10.558;2022-09-30T12:46:27;19.50;81.00
3190;DHT22;1606;51.946;10.558;2022-09-30T12:49:00;19.30;82.60
3190;DHT22;1606;51.946;10.558;2022-09-30T12:51:32;19.60;81.40
3190;DHT22;1606;51.946;10.558;2022-09-30T12:54:04;19.90;81.80
3190;DHT22;1606;51.946;10.558;2022-09-30T12:56:33;20.10;82.80
3190;DHT22;1606;51.946;10.558;2022-09-30T12:59:03;20.20;77.50
3190;DHT22;1606;51.946;10.558;2022-09-30T13:01:35;20.10;76.40
3190;DHT22;1606;51.946;10.558;2022-09-30T13:04:16;20.20;73.40
3190;DHT22;1606;51.946;10.558;2022-09-30T13:07:11;20.60;71.80
3190;DHT22;1606;51.946;10.558;2022-09-30T13:09:55;20.60;74.60
3190;DHT22;1606;51.946;10.558;2022-09-30T13:12:26;20.60;74.10
3190;DHT22;1606;51.946;10.558;2022-09-30T13:15:25;20.50;72.20
3190;DHT22;1606;51.946;10.558;2022-09-30T13:21:23;20.20;70.80
3190;DHT22;1606;51.946;10.558;2022-09-30T13:23:53;20.10;72.00
3190;DHT22;1606;51.946;10.558;2022-09-30T13:26:39;20.30;72.70
3190;DHT22;1606;51.946;10.558;2022-09-30T13:29:32;20.60;71.20
3190;DHT22;1606;51.946;10.558;2022-09-30T13:32:06;20.70;71.80
3190;DHT22;1606;51.946;10.558;2022-09-30T13:34:52;20.70;70.20
3190;DHT22;1606;51.946;10.558;2022-09-30T13:37:36;20.40;68.50
3190;DHT22;1606;51.946;10.558;2022-09-30T13:40:16;20.40;71.30
3190;DHT22;1606;51.946;10.558;2022-09-30T13:42:58;20.10;73.00
3190;DHT22;1606;51.946;10.558;2022-09-30T13:45:33;19.70;72.40
3190;DHT22;1606;51.946;10.558;2022-09-30T13:48:09;19.80;72.90
3190;DHT22;1606;51.946;10.558;2022-09-30T13:50:44;19.60;73.20
3190;DHT22;1606;51.946;10.558;2022-09-30T13:53:20;19.60;74.20
3190;DHT22;1606;51.946;10.558;2022-09-30T13:55:51;19.50;72.70
3190;DHT22;1606;51.946;10.558;2022-09-30T14:01:58;19.70;76.40
3190;DHT22;1606;51.946;10.558;2022-09-30T14:07:47;19.50;78.00
3190;DHT22;1606;51.946;10.558;2022-09-30T14:10:38;19.50;76.40
3190;DHT22;1606;51.946;10.558;2022-09-30T14:13:27;19.50;75.60
3190;DHT22;1606;51.946;10.558;2022-09-30T14:16:34;19.80;73.40
3190;DHT22;1606;51.946;10.558;2022-09-30T14:19:16;19.80;73.10
3190;DHT22;1606;51.946;10.558;2022-09-30T14:21:47;19.70;74.60
3190;DHT22;1606;51.946;10.558;2022-09-30T14:24:21;19.80;74.10
3190;DHT22;1606;51.946;10.558;2022-09-30T14:29:50;20.00;73.20
3190;DHT22;1606;51.946;10.558;2022-09-30T14:32:25;20.00;73.80
3190;DHT22;1606;51.946;10.558;2022-09-30T14:34:55;19.90;71.70
3190;DHT22;1606;51.946;10.558;2022-09-30T14:37:26;19.80;72.00
3190;DHT22;1606;51.946;10.558;2022-09-30T14:39:55;19.70;71.90
3190;DHT22;1606;51.946;10.558;2022-09-30T14:42:29;19.70;72.30
3190;DHT22;1606;51.946;10.558;2022-09-30T14:45:01;19.80;71.70
3190;DHT22;1606;51.946;10.558;2022-09-30T14:47:33;19.80;70.70
3190;DHT22;1606;51.946;10.558;2022-09-30T14:50:08;19.60;71.80
3190;DHT22;1606;51.946;10.558;2022-09-30T14:52:41;19.60;72.10
3190;DHT22;1606;51.946;10.558;2022-09-30T14:55:19;19.60;72.60
3190;DHT22;1606;51.946;10.558;2022-09-30T14:57:49;19.50;71.30
3190;DHT22;1606;51.946;10.558;2022-09-30T15:00:29;19.40;71.50
3190;DHT22;1606;51.946;10.558;2022-09-30T15:02:58;19.50;72.70
3190;DHT22;1606;51.946;10.558;2022-09-30T15:05:27;19.70;73.20
3190;DHT22;1606;51.946;10.558;2022-09-30T15:07:55;19.70;73.00
3190;DHT22;1606;51.946;10.558;2022-09-30T15:10:24;19.70;74.30
3190;DHT22;1606;51.946;10.558;2022-09-30T15:12:52;19.40;71.40
3190;DHT22;1606;51.946;10.558;2022-09-30T15:15:33;19.20;73.20
3190;DHT22;1606;51.946;10.558;2022-09-30T15:18:28;19.30;73.90
3190;DHT22;1606;51.946;10.558;2022-09-30T15:21:00;19.20;73.80
3190;DHT22;1606;51.946;10.558;2022-09-30T15:23:32;19.10;74.40
3190;DHT22;1606;51.946;10.558;2022-09-30T15:26:03;19.20;74.20
3190;DHT22;1606;51.946;10.558;2022-09-30T15:28:32;19.20;73.40
3190;DHT22;1606;51.946;10.558;2022-09-30T15:31:04;19.10;73.40
3190;DHT22;1606;51.946;10.558;2022-09-30T15:33:34;19.10;75.30
3190;DHT22;1606;51.946;10.558;2022-09-30T15:36:04;19.20;75.10
3190;DHT22;1606;51.946;10.558;2022-09-30T15:38:34;19.00;73.90
3190;DHT22;1606;51.946;10.558;2022-09-30T15:41:05;19.10;72.60
3190;DHT22;1606;51.946;10.558;2022-09-30T15:43:39;18.80;72.30
3190;DHT22;1606;51.946;10.558;2022-09-30T15:46:36;18.90;72.90
3190;DHT22;1606;51.946;10.558;2022-09-30T15:49:31;18.90;73.60
3190;DHT22;1606;51.946;10.558;2022-09-30T15:52:25;18.90;74.30
3190;DHT22;1606;51.946;10.558;2022-09-30T15:54:56;18.90;74.90
3190;DHT22;1606;51.946;10.558;2022-09-30T15:57:45;19.00;74.80
3190;DHT22;1606;51.946;10.558;2022-09-30T16:00:35;19.10;75.10
3190;DHT22;1606;51.946;10.558;2022-09-30T16:03:24;19.00;74.80
3190;DHT22;1606;51.946;10.558;2022-09-30T16:05:52;19.00;75.30
3190;DHT22;1606;51.946;10.558;2022-09-30T16:08:23;19.00;75.60
3190;DHT22;1606;51.946;10.558;2022-09-30T16:10:54;19.00;77.20
3190;DHT22;1606;51.946;10.558;2022-09-30T16:13:25;18.90;77.60
3190;DHT22;1606;51.946;10.558;2022-09-30T16:15:55;18.80;78.30
3190;DHT22;1606;51.946;10.558;2022-09-30T16:18:27;18.80;79.00
3190;DHT22;1606;51.946;10.558;2022-09-30T16:21:03;18.80;80.10
3190;DHT22;1606;51.946;10.558;2022-09-30T16:23:35;18.70;78.10
3190;DHT22;1606;51.946;10.558;2022-09-30T16:26:18;18.60;77.90
3190;DHT22;1606;51.946;10.558;2022-09-30T16:28:49;18.50;78.10
3190;DHT22;1606;51.946;10.558;2022-09-30T16:31:18;18.40;79.10
3190;DHT22;1606;51.946;10.558;2022-09-30T16:33:48;18.30;80.10
3190;DHT22;1606;51.946;10.558;2022-09-30T16:36:16;18.00;81.70
3190;DHT22;1606;51.946;10.558;2022-09-30T16:38:44;17.90;82.00
3190;DHT22;1606;51.946;10.558;2022-09-30T16:41:12;17.90;82.60
3190;DHT22;1606;51.946;10.558;2022-09-30T16:43:40;17.80;82.70
3190;DHT22;1606;51.946;10.558;2022-09-30T16:46:09;17.70;82.60
3190;DHT22;1606;51.946;10.558;2022-09-30T16:48:37;17.70;83.70
3190;DHT22;1606;51.946;10.558;2022-09-30T16:51:11;17.80;84.60
3190;DHT22;1606;51.946;10.558;2022-09-30T16:53:40;17.70;85.10